Time;durP1;ratioP1;P1;durP2;ratioP2;P2;SDS_P1;SDS_P2;PMS_P1;PMS_P2;Temp;Humidity;BMP_temperature;BMP_pressure;BME280_temperature;BME280_humidity;BME280_pressure;Samples;Min_cycle;Max_cycle;Signal;HPM_P1;HPM_P2
2021/10/24 00:00:16;;;;;;;0.35;0.30;;;4.90;99.90;;;;;;5053213;28;20390;-68
2021/10/24 00:02:42;;;;;;;0.10;0.10;;;4.70;99.90;;;;;;5053278;28;20504;-68
2021/10/24 00:05:09;;;;;;;0.75;0.75;;;4.50;99.90;;;;;;5052020;28;20166;-68
2021/10/24 00:07:35;;;;;;;0.20;0.20;;;4.60;99.90;;;;;;5052814;28;20021;-68
2021/10/24 00:10:01;;;;;;;1.50;0.40;;;4.60;99.90;;;;;;5051929;28;20044;-68
2021/10/24 00:12:26;;;;;;;0.80;0.80;;;4.50;99.90;;;;;;5053224;28;20384;-68
2021/10/24 00:14:52;;;;;;;0.10;0.10;;;4.40;99.90;;;;;;5053559;28;20044;-68
2021/10/24 00:17:18;;;;;;;1.08;1.08;;;4.30;99.90;;;;;;5052916;28;20036;-68
2021/10/24 00:19:44;;;;;;;0.10;0.10;;;4.30;99.90;;;;;;5051327;28;20049;-68
2021/10/24 00:22:11;;;;;;;4.40;1.95;;;4.40;99.90;;;;;;5052909;28;20036;-68
2021/10/24 00:24:37;;;;;;;0.17;0.17;;;4.40;99.90;;;;;;5051694;28;20041;-68
2021/10/24 00:27:03;;;;;;;0.08;0.08;;;4.40;99.90;;;;;;5052600;28;20024;-68
2021/10/24 00:29:29;;;;;;;0.77;0.43;;;4.30;99.90;;;;;;5052851;28;20110;-68
2021/10/24 00:31:55;;;;;;;1.85;0.98;;;4.30;99.90;;;;;;5052973;28;20482;-68
2021/10/24 00:34:20;;;;;;;0.40;0.40;;;4.40;99.90;;;;;;5052796;28;20049;-68
2021/10/24 00:36:46;;;;;;;0.08;0.08;;;4.40;99.90;;;;;;5052445;28;20032;-68
2021/10/24 00:39:12;;;;;;;0.00;0.00;;;4.50;99.90;;;;;;5052527;28;20052;-68
2021/10/24 00:41:38;;;;;;;0.10;0.10;;;4.40;99.90;;;;;;5052235;28;20367;-68
2021/10/24 00:44:32;;;;;;;0.08;0.08;;;4.40;99.90;;;;;;5052795;28;20044;-68
2021/10/24 00:47:02;;;;;;;0.08;0.08;;;4.50;99.90;;;;;;5051577;28;20124;-68
2021/10/24 00:49:29;;;;;;;0.40;0.40;;;4.50;99.90;;;;;;5052490;28;20040;-68
2021/10/24 00:51:55;;;;;;;42.75;2.63;;;4.50;99.90;;;;;;5052423;28;20036;-68
2021/10/24 00:54:24;;;;;;;0.10;0.10;;;4.20;99.90;;;;;;5052503;28;20113;-68
2021/10/24 00:56:54;;;;;;;1.13;1.05;;;4.20;99.90;;;;;;5051073;28;20041;-68
2021/10/24 00:59:21;;;;;;;0.05;0.05;;;4.20;99.90;;;;;;5052280;28;20036;-68
2021/10/24 01:01:47;;;;;;;1.33;1.20;;;4.20;99.90;;;;;;5052007;28;20031;-68
2021/10/24 01:04:13;;;;;;;0.05;0.05;;;4.20;99.90;;;;;;5052518;28;20025;-68
2021/10/24 01:06:41;;;;;;;0.90;0.90;;;4.20;99.90;;;;;;5050731;28;20625;-68
2021/10/24 01:09:14;;;;;;;0.10;0.10;;;4.20;99.90;;;;;;5051000;28;20101;-68
2021/10/24 01:11:41;;;;;;;0.08;0.08;;;4.20;99.90;;;;;;5050809;28;20496;-68
2021/10/24 01:14:09;;;;;;;0.00;0.00;;;4.20;99.90;;;;;;5050961;28;20029;-68
2021/10/24 01:16:37;;;;;;;4.55;1.98;;;4.30;99.90;;;;;;5052217;28;20067;-68
2021/10/24 01:19:05;;;;;;;0.00;0.00;;;4.40;99.90;;;;;;5050930;28;20041;-68
2021/10/24 01:21:32;;;;;;;0.20;0.20;;;4.40;99.90;;;;;;5050607;28;20037;-68
2021/10/24 01:24:00;;;;;;;0.00;0.00;;;4.40;99.90;;;;;;5051109;28;20171;-68
2021/10/24 01:26:26;;;;;;;0.10;0.10;;;4.40;99.90;;;;;;5051962;28;20029;-68
2021/10/24 01:28:56;;;;;;;0.00;0.00;;;4.40;99.90;;;;;;5051685;28;20084;-68
2021/10/24 01:31:23;;;;;;;0.45;0.45;;;4.40;99.90;;;;;;5050602;28;20386;-68
2021/10/24 01:33:49;;;;;;;0.30;0.30;;;4.40;99.90;;;;;;5052094;28;20160;-68
2021/10/24 01:36:15;;;;;;;0.15;0.15;;;4.40;99.90;;;;;;5050812;28;20505;-68
2021/10/24 01:38:51;;;;;;;0.20;0.20;;;4.40;99.90;;;;;;5050706;28;20067;-68
2021/10/24 01:41:20;;;;;;;0.45;0.45;;;4.40;99.90;;;;;;5067276;28;20394;-68
2021/10/24 01:43:47;;;;;;;0.00;0.00;;;4.40;99.90;;;;;;5050497;28;20036;-68
2021/10/24 01:46:14;;;;;;;0.15;0.15;;;4.20;99.90;;;;;;5050660;28;20075;-68
2021/10/24 01:48:41;;;;;;;0.45;0.45;;;4.10;99.90;;;;;;5050608;28;20059;-68
2021/10/24 01:51:07;;;;;;;0.47;0.47;;;4.10;99.90;;;;;;5050864;28;20116;-68
2021/10/24 01:53:37;;;;;;;0.00;0.00;;;4.20;99.90;;;;;;5050784;28;20112;-68
2021/10/24 01:56:05;;;;;;;0.10;0.10;;;4.20;99.90;;;;;;5052030;28;20029;-68
2021/10/24 01:58:31;;;;;;;0.00;0.00;;;4.10;99.90;;;;;;5051815;28;20041;-68
2021/10/24 02:00:57;;;;;;;0.15;0.15;;;4.20;99.90;;;;;;5050830;28;20117;-68
2021/10/24 02:03:23;;;;;;;0.00;0.00;;;4.10;99.90;;;;;;5052219;28;20115;-68
2021/10/24 02:05:48;;;;;;;0.00;0.00;;;4.00;99.90;;;;;;5051758;28;20086;-68
2021/10/24 02:08:15;;;;;;;0.13;0.13;;;4.00;99.90;;;;;;5050913;28;20116;-68
2021/10/24 02:10:41;;;;;;;0.05;0.05;;;3.90;99.90;;;;;;5054452;28;20127;-68
2021/10/24 02:13:08;;;;;;;0.00;0.00;;;3.80;99.90;;;;;;5055871;28;20514;-68
2021/10/24 02:15:35;;;;;;;0.43;0.43;;;3.70;99.90;;;;;;5055895;28;20033;-68
2021/10/24 02:18:05;;;;;;;0.00;0.00;;;3.70;99.90;;;;;;5054321;28;20032;-68
2021/10/24 02:20:34;;;;;;;0.10;0.10;;;3.70;99.90;;;;;;5054025;28;20041;-68
2021/10/24 02:23:01;;;;;;;0.22;0.22;;;3.70;99.90;;;;;;5054810;28;20044;-68
2021/10/24 02:25:28;;;;;;;0.00;0.00;;;3.70;99.90;;;;;;5070525;28;20033;-68
2021/10/24 02:27:54;;;;;;;0.45;0.45;;;3.80;99.90;;;;;;5053577;28;20028;-68
2021/10/24 02:30:20;;;;;;;0.20;0.20;;;3.80;99.90;;;;;;5053826;28;20500;-68
2021/10/24 02:32:46;;;;;;;0.05;0.05;;;3.80;99.90;;;;;;5054739;28;20117;-68
2021/10/24 02:35:13;;;;;;;0.30;0.30;;;3.80;99.90;;;;;;5055125;28;20028;-69
2021/10/24 02:37:41;;;;;;;0.80;0.55;;;3.80;99.90;;;;;;5053572;28;20098;-68
2021/10/24 02:40:07;;;;;;;0.17;0.17;;;3.90;99.90;;;;;;5054822;28;20495;-68
2021/10/24 02:42:34;;;;;;;0.08;0.08;;;3.90;99.90;;;;;;5053481;28;20036;-68
2021/10/24 02:45:00;;;;;;;0.00;0.00;;;3.80;99.90;;;;;;5054882;28;20113;-68
2021/10/24 02:47:26;;;;;;;0.65;0.65;;;3.80;99.90;;;;;;5053401;28;20029;-68
2021/10/24 02:49:51;;;;;;;0.52;0.40;;;3.70;99.90;;;;;;5054866;28;20032;-68
2021/10/24 02:52:18;;;;;;;1.35;0.90;;;3.70;99.90;;;;;;5054916;28;20067;-68
2021/10/24 02:54:44;;;;;;;0.05;0.05;;;3.70;99.90;;;;;;5053230;28;20059;-68
2021/10/24 02:57:10;;;;;;;0.40;0.40;;;3.70;99.90;;;;;;5053595;28;20029;-68
2021/10/24 02:59:36;;;;;;;0.00;0.00;;;3.80;99.90;;;;;;5054318;28;20067;-68
2021/10/24 03:02:03;;;;;;;0.10;0.10;;;3.80;99.90;;;;;;5054652;28;20498;-68
2021/10/24 03:04:28;;;;;;;0.47;0.47;;;3.90;99.90;;;;;;5054296;28;20028;-68
2021/10/24 03:06:55;;;;;;;0.15;0.15;;;4.00;99.90;;;;;;5054420;28;20029;-68
2021/10/24 03:09:21;;;;;;;0.40;0.40;;;3.90;99.90;;;;;;5054242;28;20473;-68
2021/10/24 03:11:48;;;;;;;0.32;0.30;;;3.90;99.90;;;;;;5054165;28;20037;-68
2021/10/24 03:14:15;;;;;;;0.10;0.10;;;3.90;99.90;;;;;;5054371;28;20055;-68
2021/10/24 03:16:42;;;;;;;0.22;0.22;;;3.90;99.90;;;;;;5054088;28;20044;-68
2021/10/24 03:19:08;;;;;;;0.45;0.45;;;4.00;99.90;;;;;;5052927;28;20029;-68
2021/10/24 03:21:34;;;;;;;0.70;0.63;;;4.10;99.90;;;;;;5052928;28;20044;-68
2021/10/24 03:24:00;;;;;;;0.95;0.65;;;4.00;99.90;;;;;;5052804;28;20672;-67
2021/10/24 03:26:31;;;;;;;0.10;0.10;;;3.90;99.90;;;;;;5052791;28;20115;-67
2021/10/24 03:28:57;;;;;;;0.00;0.00;;;3.80;99.90;;;;;;5053507;28;20385;-68
2021/10/24 03:31:23;;;;;;;0.20;0.20;;;3.80;99.90;;;;;;5052665;28;20377;-68
2021/10/24 03:33:50;;;;;;;0.20;0.20;;;3.60;99.90;;;;;;5052612;28;20040;-68
2021/10/24 03:36:16;;;;;;;0.30;0.30;;;3.50;99.90;;;;;;5053751;28;20060;-67
2021/10/24 03:38:42;;;;;;;1.00;0.47;;;3.50;99.90;;;;;;5053387;28;20381;-67
2021/10/24 03:41:09;;;;;;;0.10;0.10;;;3.60;99.90;;;;;;5053994;28;20025;-68
2021/10/24 03:43:34;;;;;;;0.30;0.30;;;3.60;99.90;;;;;;5052177;28;20127;-68
2021/10/24 03:46:00;;;;;;;0.10;0.10;;;3.70;99.90;;;;;;5053492;28;20116;-68
2021/10/24 03:48:26;;;;;;;0.30;0.30;;;3.60;99.90;;;;;;5052333;28;20033;-67
2021/10/24 03:50:52;;;;;;;0.30;0.30;;;3.60;99.90;;;;;;5052130;28;20359;-68
2021/10/24 03:53:18;;;;;;;0.10;0.10;;;3.60;99.90;;;;;;5053456;28;20367;-67
2021/10/24 03:55:47;;;;;;;0.68;0.68;;;3.60;99.90;;;;;;5053140;28;20052;-68
2021/10/24 03:58:14;;;;;;;0.10;0.10;;;3.50;99.90;;;;;;5053539;28;20037;-68
2021/10/24 04:00:40;;;;;;;1.65;1.45;;;3.40;99.90;;;;;;5053248;28;20036;-68
2021/10/24 04:03:05;;;;;;;0.10;0.10;;;3.10;99.90;;;;;;5053447;28;20389;-68
2021/10/24 04:05:33;;;;;;;0.55;0.55;;;3.10;99.90;;;;;;5052190;28;20498;-68
2021/10/24 04:07:59;;;;;;;0.10;0.10;;;3.00;99.90;;;;;;5052879;28;20091;-68
2021/10/24 04:10:27;;;;;;;0.10;0.10;;;2.90;99.90;;;;;;5053333;28;20102;-68
2021/10/24 04:12:54;;;;;;;0.25;0.25;;;2.90;99.90;;;;;;5051728;28;20079;-68
2021/10/24 04:15:22;;;;;;;0.00;0.00;;;2.80;99.90;;;;;;5051781;28;20056;-68
2021/10/24 04:17:48;;;;;;;0.00;0.00;;;2.70;99.90;;;;;;5051495;28;20112;-68
2021/10/24 04:20:18;;;;;;;0.00;0.00;;;2.80;99.90;;;;;;5052803;28;20098;-68
2021/10/24 04:22:45;;;;;;;0.50;0.43;;;2.70;99.90;;;;;;5052904;28;20509;-68
2021/10/24 04:25:12;;;;;;;2.80;2.60;;;2.70;99.90;;;;;;5052745;28;20490;-68
2021/10/24 04:27:38;;;;;;;5.40;3.00;;;2.70;99.90;;;;;;5051536;28;20112;-68
2021/10/24 04:30:07;;;;;;;2.30;1.38;;;2.80;99.90;;;;;;5052527;28;20079;-68
2021/10/24 04:32:35;;;;;;;1.65;1.55;;;2.80;99.90;;;;;;5052106;28;20631;-68
2021/10/24 04:35:00;;;;;;;0.47;0.47;;;2.80;99.90;;;;;;5051519;28;20116;-68
2021/10/24 04:37:26;;;;;;;0.10;0.10;;;2.90;99.90;;;;;;5051641;28;20167;-68
2021/10/24 04:39:52;;;;;;;0.08;0.08;;;3.00;99.90;;;;;;5052191;28;20052;-68
2021/10/24 04:42:18;;;;;;;0.13;0.13;;;3.00;99.90;;;;;;5052738;28;20036;-68
2021/10/24 04:44:44;;;;;;;0.40;0.40;;;3.10;99.90;;;;;;5051525;28;20035;-68
2021/10/24 04:47:10;;;;;;;0.10;0.10;;;3.00;99.90;;;;;;5052424;28;20033;-68
2021/10/24 04:49:36;;;;;;;0.55;0.55;;;3.00;99.90;;;;;;5052377;28;20516;-68
2021/10/24 04:52:03;;;;;;;0.00;0.00;;;3.00;99.90;;;;;;5052381;28;20028;-68
2021/10/24 04:54:29;;;;;;;1.05;1.05;;;3.00;99.90;;;;;;5051081;28;20044;-68
2021/10/24 04:56:55;;;;;;;0.10;0.10;;;3.00;99.90;;;;;;5052342;28;20175;-68
2021/10/24 04:59:22;;;;;;;0.10;0.10;;;3.00;99.90;;;;;;5052067;28;20025;-68
2021/10/24 05:01:48;;;;;;;0.20;0.20;;;3.00;99.90;;;;;;5052114;28;20063;-68
2021/10/24 05:04:15;;;;;;;0.10;0.10;;;3.00;99.90;;;;;;5051312;28;20048;-68
2021/10/24 05:06:41;;;;;;;0.80;0.80;;;3.00;99.90;;;;;;5052358;28;20111;-68
2021/10/24 05:09:07;;;;;;;0.73;0.55;;;2.90;99.90;;;;;;5052289;28;20116;-68
2021/10/24 05:11:33;;;;;;;0.63;0.57;;;2.90;99.90;;;;;;5050891;28;20025;-68
2021/10/24 05:14:04;;;;;;;0.00;0.00;;;3.00;99.90;;;;;;5050750;28;20032;-68
2021/10/24 05:16:30;;;;;;;0.88;0.88;;;3.00;99.90;;;;;;5050811;28;20550;-68
2021/10/24 05:18:56;;;;;;;0.00;0.00;;;3.00;99.90;;;;;;5050876;28;20041;-68
2021/10/24 05:21:22;;;;;;;0.25;0.25;;;2.80;99.90;;;;;;5050613;28;20055;-68
2021/10/24 05:23:48;;;;;;;0.00;0.00;;;2.70;99.90;;;;;;5050735;28;20025;-68
2021/10/24 05:26:14;;;;;;;0.13;0.13;;;2.50;99.90;;;;;;5034123;28;20040;-68
2021/10/24 05:28:40;;;;;;;0.00;0.00;;;2.60;99.90;;;;;;5050721;28;20032;-68
2021/10/24 05:31:05;;;;;;;0.68;0.40;;;2.50;99.90;;;;;;5051991;28;20025;-68
2021/10/24 05:33:31;;;;;;;0.10;0.10;;;2.60;99.90;;;;;;5051809;28;20025;-68
2021/10/24 05:35:57;;;;;;;0.73;0.73;;;2.60;99.90;;;;;;5050445;28;20065;-68
2021/10/24 05:38:24;;;;;;;0.00;0.00;;;2.60;99.90;;;;;;5051776;28;20021;-68
2021/10/24 05:40:51;;;;;;;0.95;0.90;;;2.60;99.90;;;;;;5050465;28;20031;-68
2021/10/24 05:43:17;;;;;;;0.63;0.63;;;2.70;99.90;;;;;;5050773;28;20029;-68
2021/10/24 05:45:44;;;;;;;1.38;1.02;;;2.70;99.90;;;;;;5053178;28;20037;-68
2021/10/24 05:48:11;;;;;;;0.20;0.20;;;2.80;99.90;;;;;;5055636;28;20039;-68
2021/10/24 05:50:38;;;;;;;0.50;0.47;;;2.80;99.90;;;;;;5055903;28;20029;-68
2021/10/24 05:53:05;;;;;;;0.10;0.10;;;2.80;99.90;;;;;;5055620;28;20029;-68
2021/10/24 05:55:31;;;;;;;2.15;1.30;;;2.80;99.90;;;;;;5054362;28;20025;-67
2021/10/24 05:57:57;;;;;;;0.00;0.00;;;2.80;99.90;;;;;;5054580;28;20061;-65
2021/10/24 06:00:23;;;;;;;0.10;0.10;;;2.80;99.90;;;;;;5055565;28;20067;-65
2021/10/24 06:02:49;;;;;;;0.22;0.22;;;2.80;99.90;;;;;;5055271;28;20025;-64
2021/10/24 06:05:15;;;;;;;0.00;0.00;;;2.80;99.90;;;;;;5053937;28;20052;-65
2021/10/24 06:07:40;;;;;;;0.10;0.10;;;2.70;99.90;;;;;;5055328;28;20063;-68
2021/10/24 06:10:15;;;;;;;1.60;1.50;;;2.80;99.90;;;;;;5055476;28;20144;-65
2021/10/24 06:12:44;;;;;;;0.47;0.47;;;2.70;99.90;;;;;;5054075;28;20363;-66
2021/10/24 06:15:15;;;;;;;0.10;0.10;;;2.70;99.90;;;;;;5054498;28;20382;-66
2021/10/24 06:17:43;;;;;;;0.08;0.08;;;2.80;99.90;;;;;;5054171;28;20025;-65
2021/10/24 06:20:10;;;;;;;4.38;1.05;;;2.60;99.90;;;;;;5053792;28;20055;-65
2021/10/24 06:22:37;;;;;;;0.32;0.28;;;2.60;99.90;;;;;;5055263;28;20037;-66
2021/10/24 06:25:05;;;;;;;0.20;0.20;;;2.60;99.90;;;;;;5055087;28;20074;-65
2021/10/24 06:27:31;;;;;;;0.00;0.00;;;2.70;99.90;;;;;;5055021;28;20066;-65
2021/10/24 06:29:56;;;;;;;1.27;1.17;;;2.70;99.90;;;;;;5054930;28;20029;-65
2021/10/24 06:32:22;;;;;;;0.00;0.00;;;2.70;99.90;;;;;;5053672;28;20163;-64
2021/10/24 06:34:48;;;;;;;0.55;0.55;;;2.50;99.90;;;;;;5053735;28;20032;-64
2021/10/24 06:37:18;;;;;;;0.63;0.63;;;2.50;99.90;;;;;;5053691;28;20025;-64
2021/10/24 06:39:45;;;;;;;0.10;0.10;;;2.60;99.90;;;;;;5053572;28;20052;-64
2021/10/24 06:42:11;;;;;;;0.10;0.10;;;2.50;99.90;;;;;;5054669;28;20036;-64
2021/10/24 06:44:36;;;;;;;0.13;0.13;;;2.50;99.90;;;;;;5053822;28;20036;-65
2021/10/24 06:47:03;;;;;;;0.08;0.08;;;2.60;99.90;;;;;;5047945;28;20033;-63
2021/10/24 06:49:28;;;;;;;0.15;0.15;;;2.70;99.90;;;;;;5043873;28;20034;-63
2021/10/24 06:51:54;;;;;;;0.08;0.08;;;2.80;99.90;;;;;;5034469;28;20100;-63
2021/10/24 06:54:20;;;;;;;1.15;0.70;;;2.90;99.90;;;;;;5034766;28;20048;-64
2021/10/24 06:56:46;;;;;;;0.10;0.10;;;2.90;99.90;;;;;;5047502;28;20029;-63
2021/10/24 06:59:11;;;;;;;0.75;0.75;;;3.00;99.90;;;;;;5054128;28;20040;-62
2021/10/24 07:01:37;;;;;;;0.30;0.30;;;3.10;99.90;;;;;;5054492;28;20112;-63
2021/10/24 07:04:04;;;;;;;0.10;0.10;;;3.10;99.90;;;;;;5054424;28;20385;-63
2021/10/24 07:06:29;;;;;;;0.22;0.22;;;3.20;99.90;;;;;;5049300;28;20037;-63
2021/10/24 07:08:55;;;;;;;3.47;2.85;;;3.30;99.90;;;;;;5034207;28;20028;-64
2021/10/24 07:11:21;;;;;;;0.10;0.10;;;3.30;99.90;;;;;;5034542;28;20474;-62
2021/10/24 07:13:47;;;;;;;0.00;0.00;;;3.40;99.90;;;;;;5034330;28;20033;-62
2021/10/24 07:16:12;;;;;;;0.03;0.03;;;3.40;99.90;;;;;;5049291;28;20033;-62
2021/10/24 07:18:38;;;;;;;0.20;0.20;;;3.40;99.90;;;;;;5034007;28;20490;-62
2021/10/24 07:21:04;;;;;;;0.85;0.85;;;3.50;99.90;;;;;;5033809;28;20057;-62
2021/10/24 07:23:30;;;;;;;0.00;0.00;;;3.60;99.90;;;;;;5034294;28;20037;-62
2021/10/24 07:25:56;;;;;;;0.88;0.68;;;3.70;99.90;;;;;;5033914;28;20069;-62
2021/10/24 07:28:21;;;;;;;0.10;0.10;;;3.70;99.90;;;;;;5033801;28;20041;-62
2021/10/24 07:30:47;;;;;;;0.00;0.00;;;3.80;99.90;;;;;;5033897;28;20056;-62
2021/10/24 07:33:13;;;;;;;0.10;0.10;;;3.90;99.90;;;;;;5033788;28;20029;-62
2021/10/24 07:35:40;;;;;;;2.55;1.33;;;3.90;99.90;;;;;;5034044;28;20037;-62
2021/10/24 07:38:12;;;;;;;1.10;1.10;;;4.00;99.90;;;;;;5033459;28;20052;-62
2021/10/24 07:40:37;;;;;;;0.00;0.00;;;4.10;99.90;;;;;;5033744;28;20029;-62
2021/10/24 07:43:03;;;;;;;1.02;0.25;;;4.20;99.90;;;;;;5033340;28;20049;-62
2021/10/24 07:45:29;;;;;;;0.00;0.00;;;4.30;99.90;;;;;;5033869;28;20040;-62
2021/10/24 07:47:56;;;;;;;0.40;0.40;;;4.30;99.90;;;;;;5033694;28;20116;-62
2021/10/24 07:50:23;;;;;;;0.63;0.50;;;4.40;99.90;;;;;;5033470;28;20105;-62
2021/10/24 07:52:49;;;;;;;0.00;0.00;;;4.50;99.90;;;;;;5033381;28;20072;-62
2021/10/24 07:55:15;;;;;;;0.10;0.10;;;4.60;99.90;;;;;;5033279;28;20061;-62
2021/10/24 07:57:40;;;;;;;0.70;0.70;;;4.70;99.90;;;;;;5033523;28;20033;-62
2021/10/24 08:00:07;;;;;;;0.00;0.00;;;4.80;99.90;;;;;;5050772;28;20033;-64
2021/10/24 08:02:34;;;;;;;1.33;0.85;;;4.80;99.90;;;;;;5052776;28;20025;-64
2021/10/24 08:05:02;;;;;;;4.05;1.85;;;5.00;99.90;;;;;;5067899;28;20056;-67
2021/10/24 08:07:28;;;;;;;0.45;0.40;;;5.10;99.90;;;;;;5052057;28;20055;-67
2021/10/24 08:09:53;;;;;;;0.25;0.25;;;5.20;99.90;;;;;;5068082;28;20041;-67
2021/10/24 08:12:19;;;;;;;0.00;0.00;;;5.30;99.90;;;;;;5053120;28;20485;-65
2021/10/24 08:14:45;;;;;;;0.10;0.10;;;5.40;99.90;;;;;;5068255;28;20116;-68
2021/10/24 08:17:11;;;;;;;0.65;0.28;;;5.50;99.90;;;;;;5052337;28;20163;-63
2021/10/24 08:19:37;;;;;;;0.00;0.00;;;5.60;99.90;;;;;;5052544;28;20040;-63
2021/10/24 08:22:04;;;;;;;0.10;0.10;;;5.70;99.90;;;;;;5052391;28;20028;-64
2021/10/24 08:24:30;;;;;;;0.10;0.10;;;5.80;99.90;;;;;;5068290;28;20421;-66
2021/10/24 08:26:56;;;;;;;0.88;0.88;;;5.90;99.90;;;;;;5067935;28;20024;-64
2021/10/24 08:29:22;;;;;;;0.00;0.00;;;6.00;99.90;;;;;;5052608;28;20048;-69
2021/10/24 08:31:50;;;;;;;3.50;2.38;;;6.20;99.90;;;;;;5051562;28;20051;-64
2021/10/24 08:34:17;;;;;;;0.00;0.00;;;6.30;99.90;;;;;;5052193;28;20433;-65
2021/10/24 08:36:44;;;;;;;2.92;1.88;;;6.50;99.90;;;;;;5051284;28;20032;-64
2021/10/24 08:39:11;;;;;;;1.05;0.77;;;6.50;99.90;;;;;;5052460;28;20559;-63
2021/10/24 08:41:40;;;;;;;0.00;0.00;;;6.80;99.90;;;;;;5052795;28;20029;-63
2021/10/24 08:44:06;;;;;;;0.10;0.10;;;7.00;99.90;;;;;;5050811;28;20029;-64
2021/10/24 08:46:33;;;;;;;0.15;0.15;;;7.40;99.90;;;;;;5051935;28;20037;-63
2021/10/24 08:48:59;;;;;;;0.00;0.00;;;7.50;99.90;;;;;;5052116;28;20033;-64
2021/10/24 08:51:29;;;;;;;0.00;0.00;;;7.60;99.90;;;;;;5052434;28;20028;-64
2021/10/24 08:53:56;;;;;;;0.57;0.57;;;7.60;99.90;;;;;;5067470;28;20512;-64
2021/10/24 08:56:29;;;;;;;0.00;0.00;;;7.80;99.90;;;;;;5067632;28;20037;-64
2021/10/24 08:58:56;;;;;;;0.98;0.90;;;7.90;99.90;;;;;;5067523;28;20029;-65
2021/10/24 09:01:22;;;;;;;0.00;0.00;;;8.00;99.90;;;;;;5051025;28;20828;-65
2021/10/24 09:04:11;;;;;;;0.73;0.73;;;8.20;99.90;;;;;;5051162;28;20124;-65
2021/10/24 09:07:02;;;;;;;0.40;0.40;;;8.30;99.90;;;;;;5052380;28;20044;-66
2021/10/24 09:09:35;;;;;;;0.00;0.00;;;8.40;99.90;;;;;;5051080;28;20045;-66
2021/10/24 09:12:10;;;;;;;0.65;0.55;;;8.60;99.90;;;;;;5051077;28;20045;-64
2021/10/24 09:14:55;;;;;;;1.65;1.17;;;8.80;99.90;;;;;;5051871;28;20036;-65
2021/10/24 09:17:24;;;;;;;1.58;1.25;;;9.20;99.90;;;;;;5050586;28;20037;-64
2021/10/24 09:20:03;;;;;;;0.68;0.68;;;9.30;99.90;;;;;;5051668;28;20049;-65
2021/10/24 09:22:31;;;;;;;0.05;0.05;;;9.50;99.90;;;;;;5052233;28;20370;-66
2021/10/24 09:25:17;;;;;;;0.63;0.63;;;9.60;99.90;;;;;;5033892;28;20458;-64
2021/10/24 09:27:59;;;;;;;4.57;2.00;;;9.90;99.90;;;;;;5051841;28;20048;-65
2021/10/24 09:30:34;;;;;;;0.00;0.00;;;10.00;99.90;;;;;;5052125;28;20033;-64
2021/10/24 09:33:10;;;;;;;0.28;0.28;;;10.40;99.90;;;;;;5050313;28;20049;-66
2021/10/24 09:35:39;;;;;;;0.00;0.00;;;10.50;99.90;;;;;;5052102;28;20109;-66
2021/10/24 09:38:18;;;;;;;1.85;1.55;;;10.60;99.90;;;;;;5051537;28;20029;-67
2021/10/24 09:40:51;;;;;;;0.20;0.20;;;10.80;99.90;;;;;;5051029;28;20044;-64
2021/10/24 09:43:30;;;;;;;0.30;0.30;;;11.10;99.90;;;;;;5051914;28;20087;-66
2021/10/24 09:45:59;;;;;;;0.10;0.10;;;11.40;99.90;;;;;;5050741;28;20069;-66
2021/10/24 09:48:31;;;;;;;2.20;0.90;;;11.50;99.90;;;;;;5051755;28;20397;-66
2021/10/24 09:51:07;;;;;;;0.63;0.63;;;11.90;99.90;;;;;;5051791;28;20025;-66
2021/10/24 09:53:36;;;;;;;0.00;0.00;;;12.00;99.90;;;;;;5051579;28;20025;-67
2021/10/24 09:56:09;;;;;;;3.20;1.73;;;12.40;99.90;;;;;;5050208;28;20025;-67
2021/10/24 09:58:37;;;;;;;0.00;0.00;;;12.20;99.90;;;;;;5050325;28;20075;-66
2021/10/24 10:01:11;;;;;;;0.45;0.45;;;12.50;99.90;;;;;;5051818;28;20025;-67
2021/10/24 10:03:39;;;;;;;0.00;0.00;;;12.70;99.90;;;;;;5050173;28;20373;-66
2021/10/24 10:06:05;;;;;;;0.28;0.28;;;12.70;99.90;;;;;;5051622;28;20025;-67
2021/10/24 10:08:32;;;;;;;0.00;0.00;;;12.80;99.90;;;;;;5051580;28;20104;-67
2021/10/24 10:11:10;;;;;;;0.00;0.00;;;12.90;99.90;;;;;;5051307;28;20696;-67
2021/10/24 10:13:40;;;;;;;1.27;0.85;;;13.30;99.90;;;;;;5050003;28;20033;-67
2021/10/24 10:16:14;;;;;;;0.00;0.00;;;13.20;99.70;;;;;;5050187;28;20028;-66
2021/10/24 10:18:55;;;;;;;0.40;0.30;;;13.50;99.90;;;;;;5049759;28;20112;-66
2021/10/24 10:21:33;;;;;;;0.00;0.00;;;13.80;99.10;;;;;;5051033;28;20107;-66
2021/10/24 10:24:01;;;;;;;0.22;0.22;;;14.10;98.90;;;;;;5050380;28;20029;-65
2021/10/24 10:26:45;;;;;;;0.30;0.30;;;14.70;97.40;;;;;;5049941;28;20029;-66
2021/10/24 10:29:36;;;;;;;0.47;0.32;;;14.60;96.80;;;;;;5051120;28;20033;-65
2021/10/24 10:32:18;;;;;;;20.48;0.70;;;14.80;96.10;;;;;;5053859;28;20037;-72
2021/10/24 10:35:14;;;;;;;0.00;0.00;;;15.90;95.30;;;;;;5054815;28;20033;-64
2021/10/24 10:37:55;;;;;;;0.10;0.10;;;16.20;94.20;;;;;;5069160;28;20091;-64
2021/10/24 10:40:35;;;;;;;1.70;0.80;;;17.90;91.70;;;;;;5053377;28;20040;-65
2021/10/24 10:43:09;;;;;;;0.30;0.22;;;18.90;88.50;;;;;;5054857;28;20067;-63
2021/10/24 10:45:40;;;;;;;4.68;0.73;;;17.70;90.80;;;;;;5053579;28;20025;-63
2021/10/24 10:48:22;;;;;;;0.08;0.08;;;16.50;92.00;;;;;;5054550;28;20045;-64
2021/10/24 10:50:58;;;;;;;0.10;0.00;;;16.40;92.70;;;;;;5054438;28;20481;-63
2021/10/24 10:53:33;;;;;;;0.22;0.22;;;18.40;91.10;;;;;;5068808;28;20033;-63
2021/10/24 10:55:58;;;;;;;32.22;1.17;;;20.30;83.00;;;;;;5054139;28;20041;-63
2021/10/24 10:58:34;;;;;;;0.00;0.00;;;20.90;76.10;;;;;;5054336;28;20045;-63
2021/10/24 11:01:28;;;;;;;0.10;0.10;;;22.50;73.60;;;;;;5054375;28;20082;-66
2021/10/24 11:04:23;;;;;;;0.10;0.10;;;21.00;72.80;;;;;;5063575;28;20040;-65
2021/10/24 11:06:53;;;;;;;0.17;0.17;;;22.30;71.80;;;;;;5068915;28;20029;-70
2021/10/24 11:09:43;;;;;;;0.30;0.22;;;18.00;77.30;;;;;;5069428;28;20037;-71
2021/10/24 11:12:30;;;;;;;0.20;0.20;;;18.10;82.30;;;;;;5069246;28;20037;-69
2021/10/24 11:15:18;;;;;;;0.43;0.38;;;17.90;80.00;;;;;;5067359;28;20035;-72
2021/10/24 11:17:49;;;;;;;0.45;0.45;;;20.20;76.60;;;;;;5052706;28;20529;-70
2021/10/24 11:20:15;;;;;;;;;;;19.20;77.70;;;;;;5069171;28;20529;-68
2021/10/24 11:22:54;;;;;;;0.00;0.00;;;19.40;77.30;;;;;;5054352;28;19916;-69
2021/10/24 11:25:30;;;;;;;0.10;0.10;;;20.40;74.90;;;;;;5052596;28;20478;-69
2021/10/24 11:27:58;;;;;;;0.00;0.00;;;20.80;72.60;;;;;;5054203;28;20759;-69
2021/10/24 11:30:24;;;;;;;0.45;0.45;;;21.10;72.80;;;;;;5068896;28;20679;-69
2021/10/24 11:32:54;;;;;;;0.28;0.17;;;21.50;71.80;;;;;;5052836;28;20052;-69
2021/10/24 11:35:22;;;;;;;0.00;0.00;;;20.20;71.90;;;;;;5068898;28;20120;-69
2021/10/24 11:38:03;;;;;;;1.10;0.90;;;21.30;72.80;;;;;;5053642;28;20028;-69
2021/10/24 11:40:32;;;;;;;0.00;0.00;;;19.70;75.50;;;;;;5068689;28;20044;-69
2021/10/24 11:43:03;;;;;;;1.35;0.70;;;20.40;73.10;;;;;;5051991;28;20474;-68
2021/10/24 11:45:42;;;;;;;0.22;0.20;;;20.50;75.30;;;;;;5053678;28;20037;-70
2021/10/24 11:48:12;;;;;;;0.00;0.00;;;22.10;72.40;;;;;;5053317;28;20037;-69
2021/10/24 11:50:48;;;;;;;0.20;0.20;;;20.60;72.10;;;;;;5068652;28;20063;-64
2021/10/24 11:53:36;;;;;;;0.08;0.08;;;18.30;76.20;;;;;;5053281;28;20536;-64
2021/10/24 11:56:07;;;;;;;0.10;0.10;;;17.70;78.90;;;;;;5053466;28;20045;-65
2021/10/24 12:01:28;;;;;;;0.20;0.20;;;17.50;82.30;;;;;;5053295;28;20033;-68
2021/10/24 12:04:04;;;;;;;0.20;0.10;;;18.10;81.20;;;;;;5068461;28;20527;-66
2021/10/24 12:06:53;;;;;;;0.00;0.00;;;19.00;78.70;;;;;;5053086;28;20115;-66
2021/10/24 12:09:39;;;;;;;1.17;0.38;;;20.80;75.70;;;;;;5052999;28;20500;-66
2021/10/24 12:12:28;;;;;;;0.05;0.05;;;20.50;72.30;;;;;;5053095;28;20035;-65
2021/10/24 12:15:05;;;;;;;0.03;0.03;;;19.40;77.00;;;;;;5052098;28;20112;-65
2021/10/24 12:17:34;;;;;;;0.28;0.28;;;18.00;77.90;;;;;;5052972;28;20040;-65
2021/10/24 12:20:25;;;;;;;0.00;0.00;;;18.90;78.60;;;;;;5052828;28;20052;-63
2021/10/24 12:23:01;;;;;;;0.00;0.00;;;19.80;76.80;;;;;;5067752;28;20067;-63
2021/10/24 12:25:56;;;;;;;0.20;0.20;;;19.80;77.10;;;;;;5052799;28;20038;-63
2021/10/24 12:28:36;;;;;;;1.13;0.82;;;18.80;76.70;;;;;;5052316;28;20093;-63
2021/10/24 12:31:29;;;;;;;0.32;0.20;;;18.50;78.90;;;;;;5052729;28;20068;-63
2021/10/24 12:33:54;;;;;;;0.65;0.65;;;18.90;78.30;;;;;;5052134;28;20044;-67
2021/10/24 12:36:35;;;;;;;0.00;0.00;;;18.80;79.10;;;;;;5052552;28;20083;-68
2021/10/24 12:39:23;;;;;;;0.00;0.00;;;18.60;80.60;;;;;;5052666;28;20032;-67
2021/10/24 12:41:50;;;;;;;0.28;0.28;;;18.30;82.00;;;;;;5052304;28;20033;-67
2021/10/24 12:44:23;;;;;;;0.10;0.10;;;17.70;82.10;;;;;;5052777;28;20059;-68
2021/10/24 12:46:53;;;;;;;0.05;0.05;;;18.10;82.20;;;;;;5052192;28;20391;-67
2021/10/24 12:49:25;;;;;;;1.48;0.85;;;18.30;80.70;;;;;;5067424;28;20037;-67
2021/10/24 12:52:09;;;;;;;0.30;0.30;;;17.80;83.30;;;;;;5052411;28;20596;-67
2021/10/24 12:54:35;;;;;;;0.00;0.00;;;17.60;85.00;;;;;;5051484;28;20064;-67
2021/10/24 12:57:01;;;;;;;0.00;0.00;;;17.70;82.80;;;;;;5052202;28;20117;-67
2021/10/24 12:59:27;;;;;;;0.22;0.22;;;17.80;82.90;;;;;;5051431;28;20131;-66
2021/10/24 13:01:54;;;;;;;0.00;0.00;;;17.60;83.10;;;;;;5052084;28;20063;-67
2021/10/24 13:04:20;;;;;;;0.70;0.52;;;17.40;84.70;;;;;;5067242;28;20036;-64
2021/10/24 13:06:47;;;;;;;339.70;55.72;;;17.30;85.10;;;;;;5050487;28;20028;-67
2021/10/24 13:09:13;;;;;;;0.40;0.40;;;17.20;85.80;;;;;;5067246;28;20120;-66